createdAt,value
2023-02-14T00:00:09.126Z,41.10
2023-02-14T00:02:17.195Z,40.55
2023-02-14T00:04:25.077Z,47.63
2023-02-14T00:06:35.674Z,44.78
2023-02-14T00:08:47.076Z,41.55
2023-02-14T00:10:55.079Z,47.10
2023-02-14T00:13:02.917Z,44.33
2023-02-14T00:15:25.609Z,49.40
2023-02-14T00:17:33.622Z,43.20
2023-02-14T00:19:41.710Z,43.92
2023-02-14T00:21:50.210Z,45.42
2023-02-14T00:24:01.065Z,42.30
2023-02-14T00:26:09.170Z,42.50
2023-02-14T00:28:17.851Z,43.97
2023-02-14T00:30:26.053Z,44.85
2023-02-14T00:32:34.454Z,47.05
2023-02-14T00:34:46.985Z,40.72
2023-02-14T00:36:55.252Z,47.08
2023-02-14T00:39:07.100Z,42.75
2023-02-14T00:41:19.403Z,40.67
2023-02-14T00:43:27.796Z,47.15
2023-02-14T00:45:35.838Z,51.95
2023-02-14T00:47:43.961Z,42.22
2023-02-14T00:49:52.715Z,40.70
2023-02-14T00:52:00.720Z,40.38
2023-02-14T00:54:11.414Z,45.97
2023-02-14T00:56:20.190Z,44.45
2023-02-14T00:58:28.401Z,41.13
2023-02-14T01:00:36.858Z,43.10
2023-02-14T01:02:44.946Z,39.47
2023-02-14T01:04:52.868Z,44.97
2023-02-14T01:07:02.012Z,47.95
2023-02-14T01:09:12.704Z,43.30
2023-02-14T01:11:23.067Z,46.70
2023-02-14T01:13:30.880Z,42.88
2023-02-14T01:15:42.566Z,42.50
2023-02-14T01:17:50.642Z,43.97
2023-02-14T01:19:58.765Z,43.55
2023-02-14T01:22:06.756Z,43.40
2023-02-14T01:24:18.122Z,43.08
2023-02-14T01:26:27.666Z,44.50
2023-02-14T01:28:35.686Z,43.83
2023-02-14T01:30:45.936Z,46.58
2023-02-14T01:32:53.932Z,42.25
2023-02-14T01:35:02.037Z,43.58
2023-02-14T01:37:10.332Z,40.22
2023-02-14T01:39:22.265Z,42.65
2023-02-14T01:41:32.767Z,47.55
2023-02-14T01:44:03.568Z,52.33
2023-02-14T01:46:12.784Z,45.55
2023-02-14T01:48:24.057Z,48.17
2023-02-14T01:50:40.023Z,45.33
2023-02-14T01:52:52.530Z,51.45
2023-02-14T01:55:09.044Z,48.08
2023-02-14T01:57:20.832Z,45.33
2023-02-14T01:59:33.658Z,47.05
2023-02-14T02:01:43.120Z,46.97
2023-02-14T02:03:54.980Z,49.97
2023-02-14T02:06:08.804Z,47.78
2023-02-14T02:08:17.396Z,45.95
2023-02-14T02:10:30.761Z,41.92
2023-02-14T02:12:39.153Z,43.55
2023-02-14T02:14:48.876Z,43.92
2023-02-14T02:17:13.708Z,44.55
2023-02-14T02:20:05.733Z,43.72
2023-02-14T02:22:40.353Z,49.67
2023-02-14T02:24:57.545Z,50.38
2023-02-14T02:27:34.372Z,43.50
2023-02-14T02:30:12.406Z,49.55
2023-02-14T02:32:50.379Z,47.15
2023-02-14T02:35:18.562Z,39.22
2023-02-14T02:37:39.065Z,45.45
2023-02-14T02:40:06.075Z,40.42
2023-02-14T02:42:24.495Z,44.08
2023-02-14T02:44:44.155Z,44.30
2023-02-14T02:47:04.284Z,47.33
2023-02-14T02:49:40.548Z,47.67
2023-02-14T02:52:13.965Z,49.17
2023-02-14T02:54:30.792Z,52.97
2023-02-14T02:56:49.954Z,47.88
2023-02-14T02:59:01.950Z,48.47
2023-02-14T03:01:14.962Z,47.80
2023-02-14T03:03:38.614Z,44.28
2023-02-14T03:05:47.001Z,42.83
2023-02-14T03:07:57.565Z,45.67
2023-02-14T03:10:12.473Z,49.83
2023-02-14T03:12:38.469Z,44.35
2023-02-14T03:14:53.116Z,46.50
2023-02-14T03:17:08.486Z,49.75
2023-02-14T03:19:57.178Z,44.47
2023-02-14T03:22:15.346Z,45.17
2023-02-14T03:24:45.383Z,48.45
2023-02-14T03:27:00.270Z,49.92
2023-02-14T03:29:16.379Z,42.55
2023-02-14T03:31:31.554Z,47.38
2023-02-14T03:33:49.673Z,43.85
2023-02-14T03:36:03.173Z,43.97
2023-02-14T03:38:15.623Z,47.65
2023-02-14T03:40:31.662Z,48.85
2023-02-14T03:42:45.184Z,46.30
2023-02-14T03:44:56.817Z,58.83
2023-02-14T03:47:10.586Z,58.45
2023-02-14T03:49:24.838Z,48.45
2023-02-14T03:51:34.921Z,43.00
2023-02-14T03:53:47.492Z,41.85
2023-02-14T03:56:05.529Z,37.80
2023-02-14T03:58:19.833Z,40.85
2023-02-14T04:00:28.345Z,47.10
2023-02-14T04:02:40.839Z,44.00
2023-02-14T04:04:51.363Z,42.20
2023-02-14T04:06:59.192Z,43.58
2023-02-14T04:09:07.357Z,43.10
2023-02-14T04:11:18.087Z,46.25
2023-02-14T04:13:26.018Z,42.83
2023-02-14T04:15:33.883Z,48.58
2023-02-14T04:17:54.332Z,43.17
2023-02-14T04:20:02.156Z,40.42
2023-02-14T04:22:10.221Z,41.00
2023-02-14T04:24:18.243Z,41.78
2023-02-14T04:26:28.604Z,43.55
2023-02-14T04:28:36.936Z,44.95
2023-02-14T04:30:44.944Z,47.60
2023-02-14T04:32:53.189Z,51.38
2023-02-14T04:35:01.041Z,51.15
2023-02-14T04:37:09.714Z,55.78
2023-02-14T04:39:17.709Z,49.15
2023-02-14T04:41:28.298Z,47.65
2023-02-14T04:43:36.131Z,45.17
2023-02-14T04:45:44.194Z,41.85
2023-02-14T04:47:52.245Z,44.90
2023-02-14T04:50:00.543Z,41.22
2023-02-14T04:52:09.564Z,42.58
2023-02-14T04:54:17.515Z,42.42
2023-02-14T04:56:28.707Z,42.40
2023-02-14T04:58:39.047Z,44.53
2023-02-14T05:00:47.073Z,43.85
2023-02-14T05:02:54.897Z,43.72
2023-02-14T05:05:02.763Z,44.08
2023-02-14T05:07:10.843Z,42.63
2023-02-14T05:09:19.432Z,41.00
2023-02-14T05:11:30.588Z,39.97
2023-02-14T05:13:38.486Z,49.75
2023-02-14T05:15:47.768Z,47.80
2023-02-14T05:17:55.680Z,49.67
2023-02-14T05:20:03.670Z,45.10
2023-02-14T05:22:11.504Z,41.60
2023-02-14T05:24:19.751Z,40.85
2023-02-14T05:26:30.726Z,41.28
2023-02-14T05:28:41.098Z,37.38
2023-02-14T05:30:49.239Z,44.00
2023-02-14T05:32:57.981Z,43.70
2023-02-14T05:35:06.318Z,47.92
2023-02-14T05:37:16.186Z,45.97
2023-02-14T05:39:24.167Z,40.58
2023-02-14T05:41:46.635Z,40.60
2023-02-14T05:43:57.916Z,45.13
2023-02-14T05:46:05.904Z,41.38
2023-02-14T05:48:13.861Z,38.88
2023-02-14T05:50:22.383Z,35.90
2023-02-14T05:52:33.650Z,39.40
2023-02-14T05:54:41.443Z,34.00
2023-02-14T05:56:51.883Z,42.28
2023-02-14T05:58:59.776Z,40.08
2023-02-14T06:01:08.220Z,37.53
2023-02-14T06:03:16.041Z,37.75
2023-02-14T06:05:24.013Z,36.47
2023-02-14T06:07:32.025Z,38.63
2023-02-14T06:09:40.022Z,36.50
2023-02-14T06:11:47.789Z,39.33
2023-02-14T06:13:58.238Z,36.95
2023-02-14T06:16:06.738Z,36.58
2023-02-14T06:18:14.788Z,34.70
2023-02-14T06:20:24.312Z,34.65
2023-02-14T06:22:32.143Z,38.25
2023-02-14T06:24:40.188Z,37.88
2023-02-14T06:26:48.162Z,40.10
2023-02-14T06:29:00.283Z,36.92
2023-02-14T06:31:08.604Z,37.25
2023-02-14T06:33:16.449Z,48.20
2023-02-14T06:35:24.248Z,44.08
2023-02-14T06:37:32.107Z,43.75
2023-02-14T06:39:39.902Z,44.15
2023-02-14T06:41:48.044Z,43.53
2023-02-14T06:43:58.655Z,37.58
2023-02-14T06:46:07.398Z,43.78
2023-02-14T06:48:15.187Z,41.78
2023-02-14T06:50:23.061Z,42.88
2023-02-14T06:52:30.816Z,41.80
2023-02-14T06:54:38.859Z,39.33
2023-02-14T06:56:46.927Z,41.05
2023-02-14T06:58:54.823Z,37.00
2023-02-14T07:01:05.339Z,41.13
2023-02-14T07:03:13.880Z,37.88
2023-02-14T07:05:22.091Z,37.25
2023-02-14T07:07:30.007Z,44.95
2023-02-14T07:09:37.857Z,42.17
2023-02-14T07:11:46.295Z,37.83
2023-02-14T07:13:54.242Z,37.08
2023-02-14T07:16:02.223Z,40.65
2023-02-14T07:18:12.847Z,35.33
2023-02-14T07:20:21.212Z,38.88
2023-02-14T07:22:30.366Z,39.60
2023-02-14T07:24:38.404Z,38.28
2023-02-14T07:26:46.203Z,38.25
2023-02-14T07:28:57.396Z,46.05
2023-02-14T07:31:06.046Z,42.47
2023-02-14T07:33:16.889Z,40.78
2023-02-14T07:35:24.668Z,35.25
2023-02-14T07:37:32.515Z,37.38
2023-02-14T07:39:40.432Z,35.78
2023-02-14T07:41:48.179Z,38.20
2023-02-14T07:44:01.696Z,37.70
2023-02-14T07:46:09.833Z,41.78
2023-02-14T07:48:20.280Z,39.45
2023-02-14T07:50:28.587Z,40.53
2023-02-14T07:52:39.037Z,44.30
2023-02-14T07:54:47.210Z,42.08
2023-02-14T07:56:55.338Z,44.67
2023-02-14T07:59:03.420Z,43.00
2023-02-14T08:01:12.730Z,47.70
2023-02-14T08:03:23.133Z,43.42
2023-02-14T08:05:31.200Z,39.10
2023-02-14T08:07:39.490Z,43.65
2023-02-14T08:09:47.364Z,38.13
2023-02-14T08:12:08.387Z,38.53
2023-02-14T08:14:16.542Z,38.22
2023-02-14T08:16:24.475Z,37.08
2023-02-14T08:18:36.822Z,39.13
2023-02-14T08:20:44.908Z,40.45
2023-02-14T08:22:53.805Z,35.95
2023-02-14T08:25:01.860Z,37.42
2023-02-14T08:27:09.832Z,36.10
2023-02-14T08:29:17.699Z,33.08
2023-02-14T08:31:35.082Z,33.25
2023-02-14T08:33:46.674Z,31.75
2023-02-14T08:35:54.984Z,35.30
2023-02-14T08:38:05.764Z,31.02
2023-02-14T08:40:14.463Z,32.90
2023-02-14T08:42:22.499Z,30.73
2023-02-14T08:44:30.762Z,37.53
2023-02-14T08:46:39.057Z,35.47
2023-02-14T08:48:50.101Z,38.03
2023-02-14T08:50:58.075Z,35.80
2023-02-14T08:53:11.296Z,34.53
2023-02-14T08:55:19.267Z,36.80
2023-02-14T08:57:27.880Z,34.70
2023-02-14T08:59:35.705Z,33.45
2023-02-14T09:01:43.864Z,32.88
2023-02-14T09:03:54.426Z,34.45
2023-02-14T09:06:08.454Z,32.47
2023-02-14T09:08:16.666Z,31.75
2023-02-14T09:10:24.983Z,35.00
2023-02-14T09:12:32.860Z,34.58
2023-02-14T09:14:41.782Z,32.65
2023-02-14T09:16:50.015Z,31.63
2023-02-14T09:19:00.938Z,29.90
2023-02-14T09:21:10.774Z,33.55
2023-02-14T09:23:18.942Z,33.15
2023-02-14T09:25:27.094Z,28.83
2023-02-14T09:27:35.326Z,29.08
2023-02-14T09:29:43.413Z,30.17
2023-02-14T09:31:51.431Z,31.67
2023-02-14T09:34:14.353Z,29.13
2023-02-14T09:36:22.373Z,20.40
2023-02-14T09:38:27.599Z,23.05
2023-02-14T09:40:36.615Z,22.25
2023-02-14T09:43:02.561Z,20.70
2023-02-14T09:45:14.796Z,19.77
2023-02-14T09:47:31.418Z,20.90
2023-02-14T09:49:42.563Z,19.58
2023-02-14T09:51:55.545Z,19.00
2023-02-14T09:54:06.784Z,18.25
2023-02-14T09:56:22.368Z,18.17
2023-02-14T09:58:36.434Z,17.45
2023-02-14T10:00:50.223Z,18.85
2023-02-14T10:03:06.069Z,20.05
2023-02-14T10:05:23.165Z,19.50
2023-02-14T10:07:39.983Z,20.30
2023-02-14T10:10:00.985Z,21.23
2023-02-14T10:12:17.511Z,19.60
2023-02-14T10:14:29.861Z,21.30
2023-02-14T10:16:53.996Z,21.40
2023-02-14T10:19:09.752Z,20.67
2023-02-14T10:21:27.261Z,21.83
2023-02-14T10:23:37.947Z,21.45
2023-02-14T10:25:51.867Z,21.08
2023-02-14T10:28:04.692Z,22.67
2023-02-14T10:30:16.443Z,19.60
2023-02-14T10:32:31.162Z,18.42
2023-02-14T10:34:46.645Z,21.48
2023-02-14T10:37:11.819Z,22.15
2023-02-14T10:39:46.393Z,18.50
2023-02-14T10:41:58.908Z,24.17
2023-02-14T10:44:23.582Z,20.92
2023-02-14T10:46:39.754Z,19.05
2023-02-14T10:48:58.418Z,19.35
2023-02-14T10:51:15.629Z,19.52
2023-02-14T10:53:34.964Z,21.48
2023-02-14T10:55:50.483Z,19.80
2023-02-14T10:57:59.978Z,18.88
2023-02-14T11:00:19.890Z,18.13
2023-02-14T11:02:33.203Z,20.35
2023-02-14T11:04:42.321Z,21.30
2023-02-14T11:06:51.558Z,18.55
2023-02-14T11:09:02.320Z,18.50
2023-02-14T11:11:20.379Z,20.40
2023-02-14T11:13:34.996Z,20.52
2023-02-14T11:15:43.215Z,19.10
2023-02-14T11:17:52.047Z,22.75
2023-02-14T11:20:02.611Z,25.42
2023-02-14T11:22:10.494Z,23.65
2023-02-14T11:24:31.633Z,24.35
2023-02-14T11:26:40.039Z,21.05
2023-02-14T11:28:56.878Z,22.40
2023-02-14T11:31:05.454Z,24.20
2023-02-14T11:33:16.112Z,21.33
2023-02-14T11:35:27.792Z,22.92
2023-02-14T11:37:42.547Z,25.73
2023-02-14T11:39:55.078Z,24.30
2023-02-14T11:42:04.594Z,23.30
2023-02-14T11:44:22.601Z,24.90
2023-02-14T11:46:36.133Z,23.27
2023-02-14T11:49:01.653Z,25.42
2023-02-14T11:51:14.063Z,21.35
2023-02-14T11:53:26.476Z,19.17
2023-02-14T11:55:37.526Z,22.85
2023-02-14T11:57:45.964Z,20.52
2023-02-14T11:59:56.772Z,22.95
2023-02-14T12:02:15.775Z,22.02
2023-02-14T12:04:30.848Z,21.50
2023-02-14T12:06:39.853Z,23.35
2023-02-14T12:08:48.171Z,23.30
2023-02-14T12:11:08.275Z,22.08
2023-02-14T12:13:27.572Z,24.48
2023-02-14T12:15:40.748Z,22.92
2023-02-14T12:17:52.527Z,24.00
2023-02-14T12:20:06.773Z,23.15
2023-02-14T12:22:19.584Z,22.88
2023-02-14T12:24:35.472Z,20.42
2023-02-14T12:26:49.866Z,24.75
2023-02-14T12:29:06.128Z,24.80
2023-02-14T12:31:15.047Z,19.55
2023-02-14T12:33:26.144Z,23.88
2023-02-14T12:35:47.687Z,22.50
2023-02-14T12:38:05.879Z,23.60
2023-02-14T12:40:24.922Z,22.15
2023-02-14T12:42:52.092Z,19.73
2023-02-14T12:45:07.525Z,21.75
2023-02-14T12:47:22.926Z,20.33
2023-02-14T12:49:58.984Z,24.17
2023-02-14T12:52:30.883Z,19.50
2023-02-14T12:54:52.369Z,21.20
2023-02-14T12:57:07.763Z,21.98
2023-02-14T12:59:29.596Z,21.27
2023-02-14T13:02:23.001Z,21.42
2023-02-14T13:05:02.003Z,20.00
2023-02-14T13:07:20.630Z,21.00
2023-02-14T13:09:38.691Z,19.55
2023-02-14T13:12:02.340Z,21.88
2023-02-14T13:14:29.692Z,18.33
2023-02-14T13:16:47.855Z,19.77
2023-02-14T13:19:02.313Z,18.90
2023-02-14T13:21:15.263Z,17.40
2023-02-14T13:23:30.594Z,18.42
2023-02-14T13:25:42.941Z,21.92
2023-02-14T13:27:51.326Z,17.30
2023-02-14T13:30:06.505Z,15.85
2023-02-14T13:32:18.463Z,16.83
2023-02-14T13:34:33.072Z,16.33
2023-02-14T13:36:41.137Z,16.13
2023-02-14T13:38:52.060Z,17.38
2023-02-14T13:41:01.989Z,21.08
2023-02-14T13:43:10.208Z,22.77
2023-02-14T13:45:48.147Z,24.45
2023-02-14T13:48:06.202Z,21.20
2023-02-14T13:50:23.616Z,24.98
2023-02-14T13:52:45.379Z,24.13
2023-02-14T13:54:53.272Z,21.92
2023-02-14T13:57:02.822Z,20.88
2023-02-14T13:59:29.281Z,20.30
2023-02-14T14:01:40.820Z,25.58
2023-02-14T14:04:39.375Z,23.50
2023-02-14T14:07:22.333Z,24.95
2023-02-14T14:09:58.598Z,25.65
2023-02-14T14:12:06.772Z,26.55
2023-02-14T14:14:36.485Z,25.38
2023-02-14T14:16:59.122Z,21.50
2023-02-14T14:19:42.609Z,28.27
2023-02-14T14:22:04.825Z,25.90
2023-02-14T14:24:25.008Z,26.10
2023-02-14T14:26:40.947Z,27.38
2023-02-14T14:28:49.430Z,25.70
2023-02-14T14:30:57.965Z,27.98
2023-02-14T14:33:17.216Z,25.45
2023-02-14T14:35:29.089Z,21.55
2023-02-14T14:37:39.205Z,21.95
2023-02-14T14:39:53.936Z,23.60
2023-02-14T14:42:09.927Z,22.77
2023-02-14T14:44:18.683Z,23.50
2023-02-14T14:46:26.835Z,25.33
2023-02-14T14:48:40.426Z,25.25
2023-02-14T14:50:52.118Z,23.40
2023-02-14T14:53:03.038Z,24.65
2023-02-14T14:55:19.181Z,25.40
2023-02-14T14:57:27.540Z,23.75
2023-02-14T14:59:38.333Z,24.80
2023-02-14T15:01:48.127Z,26.92
2023-02-14T15:03:56.034Z,25.27
2023-02-14T15:06:18.047Z,25.15
2023-02-14T15:08:35.397Z,25.33
2023-02-14T15:10:43.590Z,28.70
2023-02-14T15:13:05.717Z,24.88
2023-02-14T15:15:15.732Z,28.15
2023-02-14T15:17:27.962Z,21.83
2023-02-14T15:19:41.886Z,26.00
2023-02-14T15:21:53.383Z,26.02
2023-02-14T15:24:01.581Z,23.73
2023-02-14T15:26:10.298Z,23.48
2023-02-14T15:28:30.037Z,25.75
2023-02-14T15:30:39.954Z,25.13
2023-02-14T15:32:49.664Z,27.45
2023-02-14T15:34:58.475Z,27.45
2023-02-14T15:37:11.049Z,23.15
2023-02-14T15:39:19.944Z,24.30
2023-02-14T15:41:28.520Z,26.30
2023-02-14T15:43:40.205Z,29.75
2023-02-14T15:45:51.334Z,28.70
2023-02-14T15:48:02.341Z,26.55
2023-02-14T15:50:17.237Z,29.73
2023-02-14T15:52:27.812Z,25.92
2023-02-14T15:54:40.619Z,23.73
2023-02-14T15:56:51.878Z,26.30
2023-02-14T15:59:07.030Z,30.25
2023-02-14T16:01:15.508Z,26.00
2023-02-14T16:03:26.610Z,26.00
2023-02-14T16:05:34.803Z,30.30
2023-02-14T16:07:58.923Z,28.48
2023-02-14T16:10:26.971Z,26.88
2023-02-14T16:12:38.350Z,27.35
2023-02-14T16:14:46.736Z,29.13
2023-02-14T16:17:02.641Z,27.25
2023-02-14T16:19:34.246Z,27.38
2023-02-14T16:21:42.407Z,27.65
2023-02-14T16:24:14.048Z,34.85
2023-02-14T16:26:21.968Z,28.63
2023-02-14T16:28:32.857Z,26.77
2023-02-14T16:30:43.191Z,27.17
2023-02-14T16:32:55.985Z,25.98
2023-02-14T16:35:04.102Z,29.92
2023-02-14T16:37:21.969Z,30.42
2023-02-14T16:39:36.559Z,29.50
2023-02-14T16:41:47.480Z,28.20
2023-02-14T16:43:56.117Z,26.45
2023-02-14T16:46:04.381Z,30.20
2023-02-14T16:48:12.997Z,29.50
2023-02-14T16:50:22.861Z,29.92
2023-02-14T16:52:33.043Z,27.23
2023-02-14T16:54:43.550Z,28.67
2023-02-14T16:56:56.007Z,29.73
2023-02-14T16:59:04.611Z,30.42
2023-02-14T17:01:12.903Z,30.05
2023-02-14T17:03:20.706Z,27.77
2023-02-14T17:05:29.268Z,29.73
2023-02-14T17:07:37.292Z,30.95
2023-02-14T17:09:54.656Z,29.35
2023-02-14T17:12:06.592Z,30.55
2023-02-14T17:14:16.871Z,41.55
2023-02-14T17:16:25.278Z,28.60
2023-02-14T17:18:35.158Z,33.03
2023-02-14T17:20:43.862Z,35.47
2023-02-14T17:22:52.023Z,34.83
2023-02-14T17:25:02.688Z,30.98
2023-02-14T17:27:11.569Z,32.03
2023-02-14T17:29:19.804Z,32.80
2023-02-14T17:31:28.914Z,29.90
2023-02-14T17:33:37.661Z,34.20
2023-02-14T17:35:45.662Z,33.97
2023-02-14T17:37:53.653Z,34.20
2023-02-14T17:40:04.356Z,33.55
2023-02-14T17:42:12.511Z,36.63
2023-02-14T17:44:21.068Z,32.78
2023-02-14T17:46:31.744Z,31.52
2023-02-14T17:48:39.699Z,36.55
2023-02-14T17:50:48.017Z,34.67
2023-02-14T17:52:57.364Z,36.53
2023-02-14T17:55:09.156Z,32.78
2023-02-14T17:57:17.038Z,35.08
2023-02-14T17:59:24.902Z,32.45
2023-02-14T18:01:36.364Z,33.90
2023-02-14T18:03:44.775Z,35.13
2023-02-14T18:05:52.626Z,39.00
2023-02-14T18:08:00.616Z,38.80
2023-02-14T18:10:13.420Z,36.90
2023-02-14T18:12:21.560Z,36.70
2023-02-14T18:14:30.764Z,34.08
2023-02-14T18:16:40.827Z,35.45
2023-02-14T18:18:49.791Z,33.90
2023-02-14T18:20:58.349Z,38.42
2023-02-14T18:23:07.623Z,35.83
2023-02-14T18:25:18.470Z,39.10
2023-02-14T18:27:26.334Z,32.83
2023-02-14T18:29:35.065Z,37.22
2023-02-14T18:31:45.381Z,35.30
2023-02-14T18:33:53.990Z,38.63
2023-02-14T18:36:04.900Z,38.67
2023-02-14T18:38:13.410Z,46.72
2023-02-14T18:40:24.234Z,37.80
2023-02-14T18:42:32.204Z,35.47
2023-02-14T18:44:40.207Z,39.03
2023-02-14T18:46:49.805Z,43.90
2023-02-14T18:49:00.004Z,39.38
2023-02-14T18:51:08.994Z,39.97
2023-02-14T18:53:16.944Z,39.90
2023-02-14T18:55:28.923Z,41.75
2023-02-14T18:57:37.686Z,35.75
2023-02-14T18:59:45.594Z,41.70
2023-02-14T19:01:53.652Z,39.17
2023-02-14T19:04:03.588Z,41.28
2023-02-14T19:06:13.238Z,40.75
2023-02-14T19:08:21.299Z,42.67
2023-02-14T19:10:32.209Z,44.58
2023-02-14T19:12:40.172Z,38.33
2023-02-14T19:14:48.659Z,42.58
2023-02-14T19:16:56.592Z,40.25
2023-02-14T19:19:04.853Z,45.47
2023-02-14T19:21:14.430Z,41.65
2023-02-14T19:23:22.346Z,40.13
2023-02-14T19:25:34.640Z,37.30
2023-02-14T19:27:43.150Z,39.45
2023-02-14T19:29:51.822Z,40.10
2023-02-14T19:32:00.255Z,38.30
2023-02-14T19:34:09.800Z,39.13
2023-02-14T19:36:20.234Z,39.20
2023-02-14T19:38:28.050Z,39.55
2023-02-14T19:40:38.735Z,41.55
2023-02-14T19:42:46.815Z,44.53
2023-02-14T19:44:54.996Z,41.88
2023-02-14T19:47:19.235Z,46.75
2023-02-14T19:49:32.572Z,43.75
2023-02-14T19:51:40.520Z,41.40
2023-02-14T19:53:48.866Z,41.17
2023-02-14T19:55:59.419Z,42.65
2023-02-14T19:58:07.624Z,44.28
2023-02-14T20:00:17.664Z,45.38
2023-02-14T20:02:25.853Z,49.40
2023-02-14T20:04:34.070Z,48.78
2023-02-14T20:06:42.703Z,42.30
2023-02-14T20:08:51.291Z,52.20
2023-02-14T20:11:02.156Z,50.55
2023-02-14T20:13:10.266Z,47.83
2023-02-14T20:15:18.484Z,43.33
2023-02-14T20:17:26.477Z,40.70
2023-02-14T20:19:38.916Z,42.83
2023-02-14T20:21:48.513Z,54.90
2023-02-14T20:23:57.613Z,48.17
2023-02-14T20:26:13.660Z,48.28
2023-02-14T20:28:21.599Z,56.10
2023-02-14T20:30:29.786Z,49.72
2023-02-14T20:32:38.284Z,50.35
2023-02-14T20:34:46.246Z,49.22
2023-02-14T20:37:11.261Z,47.90
2023-02-14T20:39:19.579Z,47.63
2023-02-14T20:41:34.470Z,48.30
2023-02-14T20:43:42.843Z,49.97
2023-02-14T20:45:51.133Z,46.78
2023-02-14T20:48:03.382Z,48.47
2023-02-14T20:50:12.555Z,48.40
2023-02-14T20:52:21.492Z,46.50
2023-02-14T20:54:30.863Z,48.05
2023-02-14T20:56:42.032Z,45.35
2023-02-14T20:58:50.140Z,53.28
2023-02-14T21:00:58.290Z,47.90
2023-02-14T21:03:06.669Z,49.75
2023-02-14T21:05:18.545Z,47.33
2023-02-14T21:07:31.070Z,48.53
2023-02-14T21:09:40.033Z,51.35
2023-02-14T21:11:50.814Z,47.42
2023-02-14T21:14:00.210Z,50.33
2023-02-14T21:16:10.244Z,49.38
2023-02-14T21:18:18.404Z,47.95
2023-02-14T21:20:26.355Z,46.08
2023-02-14T21:22:37.118Z,46.55
2023-02-14T21:24:45.701Z,35.50
2023-02-14T21:26:56.272Z,33.28
2023-02-14T21:29:04.148Z,33.97
2023-02-14T21:31:14.461Z,29.48
2023-02-14T21:33:22.479Z,32.50
2023-02-14T21:35:30.696Z,33.42
2023-02-14T21:37:38.987Z,32.97
2023-02-14T21:39:46.942Z,34.33
2023-02-14T21:42:00.856Z,34.90
2023-02-14T21:44:10.609Z,32.97
2023-02-14T21:46:18.548Z,33.78
2023-02-14T21:48:39.025Z,34.15
2023-02-14T21:50:47.065Z,34.88
2023-02-14T21:52:55.125Z,31.52
2023-02-14T21:55:03.319Z,33.88
2023-02-14T21:57:14.474Z,30.85
2023-02-14T21:59:25.006Z,32.60
2023-02-14T22:01:35.182Z,32.47
2023-02-14T22:03:43.363Z,31.63
2023-02-14T22:05:51.187Z,34.00
2023-02-14T22:07:59.276Z,29.23
2023-02-14T22:10:09.613Z,30.40
2023-02-14T22:12:20.431Z,31.02
2023-02-14T22:14:29.339Z,31.95
2023-02-14T22:16:38.331Z,32.63
2023-02-14T22:18:47.450Z,36.95
2023-02-14T22:20:55.366Z,33.05
2023-02-14T22:23:03.560Z,33.35
2023-02-14T22:25:11.710Z,33.05
2023-02-14T22:27:22.386Z,33.75
2023-02-14T22:29:30.332Z,31.33
2023-02-14T22:31:41.059Z,28.95
2023-02-14T22:33:50.320Z,34.55
2023-02-14T22:35:59.276Z,32.83
2023-02-14T22:38:07.457Z,30.92
2023-02-14T22:40:15.932Z,26.27
2023-02-14T22:42:26.524Z,33.33
2023-02-14T22:44:34.617Z,31.70
2023-02-14T22:46:42.888Z,33.17
2023-02-14T22:48:52.669Z,33.78
2023-02-14T22:51:09.115Z,30.83
2023-02-14T22:53:20.044Z,30.00
2023-02-14T22:55:28.533Z,30.02
2023-02-14T22:57:38.940Z,28.52
2023-02-14T22:59:46.937Z,28.05
2023-02-14T23:01:56.352Z,33.00
2023-02-14T23:04:05.870Z,32.83
2023-02-14T23:06:14.709Z,34.05
2023-02-14T23:08:22.627Z,33.33
2023-02-14T23:10:30.581Z,35.95
2023-02-14T23:12:53.448Z,37.38
2023-02-14T23:15:13.968Z,37.28
2023-02-14T23:17:34.128Z,36.60
2023-02-14T23:19:54.443Z,30.02
2023-02-14T23:22:04.041Z,31.10
2023-02-14T23:24:11.865Z,32.88
2023-02-14T23:26:22.407Z,32.65
2023-02-14T23:28:33.334Z,36.33
2023-02-14T23:30:41.401Z,33.45
2023-02-14T23:32:49.747Z,34.22
2023-02-14T23:34:57.950Z,40.03
2023-02-14T23:37:09.182Z,35.63
2023-02-14T23:39:17.246Z,33.40
2023-02-14T23:41:37.468Z,33.45
2023-02-14T23:43:48.566Z,35.35
2023-02-14T23:45:58.913Z,33.13
2023-02-14T23:48:08.122Z,35.55
2023-02-14T23:50:16.161Z,36.38
2023-02-14T23:52:23.894Z,35.13
2023-02-14T23:54:32.064Z,34.40
2023-02-14T23:56:40.752Z,35.28
2023-02-14T23:58:51.734Z,35.15
